AirNav   Everest Fuels
 
 1139 users online  

1TX7 Killion Ranch Airport
Hamlin, Texas, USA

GOING TO HAMLIN?


FAA INFORMATION EFFECTIVE 18 JULY 2019

Location

FAA Identifier: 1TX7
Lat/Long: 32-48-20.3940N / 100-11-01.3690W
32-48.339900N / 100-11.022817W
32.8056650 / -100.1837136
(estimated)
Elevation: 1845 ft. / 562 m (estimated)
Variation: 08E (1985)
From city: 5 miles SW of HAMLIN, TX
Time zone: UTC -5 (UTC -6 during Standard Time)
Zip code: 79520

Airport Operations

Airport use: Private use. Permission required prior to landing
Activation date: 12/1970
Control tower: no
ARTCC: FORT WORTH CENTER
FSS: FORT WORTH FLIGHT SERVICE STATION
Attendance: CONTINUOUS
Wind indicator: yes
Segmented circle: no

Nearby radio navigation aids

VOR radial/distance  VOR name  Freq  Var
ABIr310/25.3ABILENE VORTAC113.7010E
TQAr322/38.9TUSCOLA VOR/DME111.6010E

 
NDB name  Hdg/Dist  Freq  Var  ID
SWEETWATER027/25.127508ESWW ... .-- .--
SNYDER073/39.035908ESDR ... -.. .-.

Airport Services

Airframe service: NONE
Powerplant service: NONE

Runway Information

Runway 17/35

Dimensions: 2300 x 50 ft. / 701 x 15 m
Surface: treated
RUNWAY 17  RUNWAY 35
Traffic pattern: leftleft

Airport Ownership and Management from official FAA records

Ownership: Privately-owned
Owner: A E KILLION
BOX 187 - 503 FM 57
HAMLIN, TX 79520
Phone 915-576-2313
Manager: A E KILLION
BOX 187 - 503 FM 57
HAMLIN, TX 79520
Phone 915-576-2313

Additional Remarks

FOR CD CTC FORT WORTH ARTCC AT 817-858-7584.

Instrument Procedures

There are no published instrument procedures at 1TX7.

Some nearby airports with instrument procedures:

F56 - Arledge Field Airport (24 nm E)
KSWW - Avenger Field Airport (25 nm SW)
KDYS - Dyess Air Force Base (29 nm SE)
15F - Haskell Municipal Airport (33 nm NE)
KABI - Abilene Regional Airport (35 nm SE)
 
Loc | Ops | Rwys | IFR | FBO | Links
Com | Nav | Svcs | Stats | Notes
Area around 1TX7 (Killion Ranch Airport)
 
Road maps at: MapQuest Bing Google
 
Aerial photo
No photo
 
Sectional chart

 
Airport distance calculator
Flying to Killion Ranch Airport? Find the distance to fly.

From to 1TX7

Sunrise and sunset
Times for 21-Jul-2019
 Local
(UTC-5)
 Zulu
(UTC)
Morning civil twilight06:2111:21
Sunrise06:4811:48
Sunset20:4601:46
Evening civil twilight21:1402:14

Current date and time
Zulu (UTC)  21-Jul-2019 22:22:31
Local (UTC-5)  21-Jul-2019 17:22:31
 
METAR
KSWW 
25nm SW 
212155Z AUTO 13007G15KT 10SM CLR 37/09 A2997 RMK AO2 T03650092
KDYS 
29nm SE 
212156Z AUTO 12014KT 10SM CLR 38/09 A2991 RMK AO2 SLP072 T03750091 PNO FZRANO $
KABI 
34nm SE 
212152Z 16014KT 10SM CLR 37/14 A2992 RMK AO2 SLP101 T03720144
KSNK 
39nm W 
212155Z AUTO 15010G16KT 10SM CLR 37/11 A2995 RMK AO2 T03670109
TAF
KDYS 
29nm SE 
211400Z 2114/2220 17012G18KT 9999 SKC QNH2990INS BECMG 2120/2121 15010G15KT 9999 SKC QNH2987INS BECMG 2123/2200 17012KT 9999 SKC QNH2987INS BECMG 2212/2213 31012KT 9999 BKN100 QNH3002INS BECMG 2217/2218 03012G18KT 8000 -TSRA BKN035CB QNH3004INS TX38/2121Z TN24/2212Z
KABI 
34nm SE 
211721Z 2118/2218 19014G18KT P6SM SKC FM220200 14010KT P6SM SKC FM221200 25008KT P6SM BKN250
NOTAMs
Click for the latest NOTAMs
NOTAMs are issued by the DoD/FAA and will open in a separate window not controlled by AirNav.

 

 
 

Would you like to see your business listed on this page?

 If your business provides an interesting product or service to pilots, flight crews, aircraft, or users of the Killion Ranch Airport, you should consider listing it here.  To start the listing process, click on the button below
 
Add a business
 

Other Pages about Killion Ranch Airport

Update a link
 
Copyright © AirNav, LLC. All rights reserved. Privacy Policy  Contact